Time;durP1;ratioP1;P1;durP2;ratioP2;P2;SDS_P1;SDS_P2;PMS_P1;PMS_P2;Temp;Humidity;BMP_temperature;BMP_pressure;BME280_temperature;BME280_humidity;BME280_pressure;Samples;Min_cycle;Max_cycle;Signal;HPM_P1;HPM_P2
2023/09/05 13:25:46;;;;;;;;;26.25;26.00;;;;;25.08;48.56;101615.80;100033;1280;10001208;-57
2023/09/05 13:28:13;;;;;;;;;25.50;23.75;;;;;25.49;47.80;101615.73;109610;1257;55181;-60
2023/09/05 13:30:40;;;;;;;;;24.33;23.67;;;;;25.74;47.41;101611.05;109693;1257;54901;-59
2023/09/05 13:33:09;;;;;;;;;24.00;23.00;;;;;25.93;46.88;101612.63;109643;1257;55377;-62
2023/09/05 13:35:36;;;;;;;;;24.00;23.00;;;;;26.06;46.54;101611.77;109623;1260;50517;-62
2023/09/05 13:38:03;;;;;;;;;24.75;23.00;;;;;26.19;46.24;101616.42;111877;1256;46838;-63
2023/09/05 13:40:58;;;;;;;;;24.25;23.00;;;;;26.43;45.90;101616.56;111815;1254;307183;-63
2023/09/05 13:43:25;;;;;;;;;22.25;21.25;;;;;26.86;45.01;101622.27;110455;1254;54871;-60
2023/09/05 13:45:53;;;;;;;;;23.00;22.00;;;;;27.13;44.07;101617.23;109901;1254;55447;-60
2023/09/05 13:48:19;;;;;;;;;26.25;24.25;;;;;27.18;43.76;101612.73;109906;1254;50500;-60
2023/09/05 13:50:46;;;;;;;;;27.00;25.33;;;;;27.13;43.80;101617.08;109846;1254;46664;-59
2023/09/05 13:53:16;;;;;;;;;24.50;23.00;;;;;27.05;43.89;101618.68;109815;1258;56142;-61
2023/09/05 13:55:43;;;;;;;;;24.25;23.75;;;;;26.95;44.23;101618.54;110369;1253;54539;-59
2023/09/05 13:58:10;;;;;;;;;26.00;24.00;;;;;26.90;44.34;101616.02;110438;1248;55375;-55
2023/09/05 14:00:37;;;;;;;;;23.75;22.25;;;;;26.86;44.46;101613.06;110647;1251;51711;-59
2023/09/05 14:03:04;;;;;;;;;25.25;24.00;;;;;26.83;44.49;101610.77;110518;1248;46575;-60
2023/09/05 14:05:31;;;;;;;;;25.00;23.00;;;;;26.82;44.59;101608.80;110386;1252;55802;-61
2023/09/05 14:07:58;;;;;;;;;27.00;25.00;;;;;26.80;44.64;101608.09;110372;1248;54790;-62
2023/09/05 14:10:25;;;;;;;;;27.75;24.50;;;;;26.79;44.69;101604.45;110337;1247;55725;-62
2023/09/05 14:12:52;;;;;;;;;26.00;24.00;;;;;26.77;44.94;101603.27;110410;1253;51245;-62
2023/09/05 14:15:21;;;;;;;;;24.33;24.00;;;;;26.75;45.05;101603.73;110695;1254;46385;-62
2023/09/05 14:17:48;;;;;;;;;25.00;22.00;;;;;26.74;45.16;101601.35;110774;1248;54844;-62
2023/09/05 14:20:14;;;;;;;;;25.00;23.75;;;;;26.73;45.13;101601.52;110811;1248;53507;-62
2023/09/05 14:22:41;;;;;;;;;27.00;25.00;;;;;26.70;45.05;101598.73;110734;1251;55429;-59
2023/09/05 14:25:09;;;;;;;;;24.00;23.00;;;;;26.69;45.05;101602.09;110746;1251;50176;-59
2023/09/05 14:27:36;;;;;;;;;29.33;27.33;;;;;26.68;45.00;101597.05;110793;1251;46627;-59
2023/09/05 14:30:05;;;;;;;;;25.25;24.25;;;;;26.68;44.96;101600.64;110882;1247;56352;-59
2023/09/05 14:32:32;;;;;;;;;31.25;27.75;;;;;26.68;44.91;101599.88;110889;1245;55750;-61
2023/09/05 14:34:59;;;;;;;;;26.25;24.00;;;;;26.69;44.90;101597.80;110848;1245;55838;-59
2023/09/05 14:37:26;;;;;;;;;28.00;27.00;;;;;26.70;44.78;101600.09;110821;1248;51353;-60
2023/09/05 14:39:53;;;;;;;;;28.25;26.75;;;;;26.70;44.83;101601.23;110843;1247;47096;-59
2023/09/05 14:42:20;;;;;;;;;29.00;27.00;;;;;26.70;44.88;101602.56;110849;1244;55346;-59
2023/09/05 14:44:47;;;;;;;;;25.00;24.00;;;;;26.70;44.87;101600.39;110904;1246;54767;-61
2023/09/05 14:47:15;;;;;;;;;28.00;26.50;;;;;26.70;44.67;101604.80;110845;1245;56121;-59
2023/09/05 14:49:42;;;;;;;;;30.00;27.00;;;;;26.71;44.75;101603.98;110911;1247;50585;-59
2023/09/05 14:52:09;;;;;;;;;30.00;27.25;;;;;26.71;44.88;101602.06;110883;1247;46060;-59
2023/09/05 14:54:36;;;;;;;;;27.75;26.25;;;;;26.69;44.94;101601.55;110857;1245;54995;-58
2023/09/05 14:57:03;;;;;;;;;27.00;26.00;;;;;26.68;44.92;101603.60;110875;1248;55336;-61
2023/09/05 14:59:30;;;;;;;;;26.00;24.67;;;;;26.66;44.94;101604.56;110886;1247;55128;-62
2023/09/05 15:01:57;;;;;;;;;27.00;25.00;;;;;26.64;44.94;101606.73;110852;1243;50135;-61
2023/09/05 15:04:24;;;;;;;;;23.75;23.00;;;;;26.64;44.93;101602.86;110781;1243;46599;-62
2023/09/05 15:06:50;;;;;;;;;26.50;24.00;;;;;26.64;44.92;101607.30;110835;1245;55066;-62
2023/09/05 15:09:17;;;;;;;;;26.50;25.00;;;;;26.65;44.83;101597.59;110875;1245;55030;-62
2023/09/05 15:11:44;;;;;;;;;27.00;25.00;;;;;26.65;44.81;101598.66;110887;1243;57527;-59
2023/09/05 15:14:11;;;;;;;;;27.67;25.00;;;;;26.64;44.81;101599.16;110863;1243;51249;-59
2023/09/05 15:16:38;;;;;;;;;29.00;27.75;;;;;26.63;44.83;101597.87;110864;1244;46815;-59
2023/09/05 15:19:06;;;;;;;;;26.50;25.25;;;;;26.63;44.85;101598.66;110854;1248;55756;-60
2023/09/05 15:21:35;;;;;;;;;28.00;25.00;;;;;26.62;44.82;101601.79;110897;1247;54920;-59
2023/09/05 15:24:06;;;;;;;;;26.25;25.00;;;;;26.62;44.82;101598.58;110895;1247;56028;-59
2023/09/05 15:26:33;;;;;;;;;28.75;25.25;;;;;26.62;44.80;101600.00;110884;1243;50445;-65
2023/09/05 15:29:00;;;;;;;;;362.00;273.25;;;;;26.63;44.80;101600.74;110883;1247;45768;-66
2023/09/05 15:31:27;;;;;;;;;82.00;62.00;;;;;26.65;44.89;101605.69;110872;1244;54816;-66
2023/09/05 15:33:54;;;;;;;;;77.25;53.75;;;;;26.66;45.00;101606.09;110907;1248;54831;-62
2023/09/05 15:36:21;;;;;;;;;82.75;63.25;;;;;26.66;45.13;101606.90;110819;1245;55060;-62
2023/09/05 15:38:48;;;;;;;;;77.75;59.50;;;;;26.65;45.10;101605.59;110899;1247;51242;-62
2023/09/05 15:41:14;;;;;;;;;80.75;60.50;;;;;26.64;45.05;101603.00;110878;1247;46997;-62
2023/09/05 15:43:41;;;;;;;;;75.00;56.00;;;;;26.63;45.04;101605.66;110904;1247;55530;-62
2023/09/05 15:46:08;;;;;;;;;75.00;52.25;;;;;26.62;45.01;101606.37;110881;1248;55439;-62
2023/09/05 15:48:35;;;;;;;;;69.25;51.25;;;;;26.62;45.00;101611.04;110864;1243;56049;-62
2023/09/05 15:51:02;;;;;;;;;69.67;49.00;;;;;26.60;44.97;101611.25;110882;1248;51909;-61
2023/09/05 15:53:30;;;;;;;;;64.25;48.75;;;;;26.60;44.95;101611.15;110929;1245;46449;-61
2023/09/05 15:55:58;;;;;;;;;62.00;46.25;;;;;26.59;44.91;101609.03;110913;1244;54926;-60
2023/09/05 15:58:25;;;;;;;;;62.50;45.25;;;;;26.59;44.86;101612.29;110919;1245;54986;-61
2023/09/05 16:00:52;;;;;;;;;63.00;45.75;;;;;26.59;44.82;101611.57;110863;1244;55452;-61
2023/09/05 16:03:19;;;;;;;;;54.67;41.33;;;;;26.59;44.83;101613.65;110886;1245;50561;-61
2023/09/05 16:05:48;;;;;;;;;61.25;44.50;;;;;26.58;44.80;101615.92;110879;1248;46653;-61
2023/09/05 16:08:15;;;;;;;;;55.67;43.00;;;;;26.58;44.77;101616.48;110888;1247;56006;-61
2023/09/05 16:10:44;;;;;;;;;54.50;41.00;;;;;26.57;44.73;101619.75;110879;1246;55873;-62
2023/09/05 16:13:11;;;;;;;;;53.25;41.25;;;;;26.57;44.71;101623.05;110888;1244;55878;-66
2023/09/05 16:15:38;;;;;;;;;54.33;40.00;;;;;26.57;44.67;101628.06;110885;1247;50490;-68
2023/09/05 16:18:05;;;;;;;;;52.75;40.00;;;;;26.58;44.63;101629.10;110860;1244;45996;-65
2023/09/05 16:20:32;;;;;;;;;54.00;39.25;;;;;26.57;44.61;101628.79;110839;1247;56254;-62
2023/09/05 16:22:59;;;;;;;;;50.67;38.00;;;;;26.57;44.61;101629.34;110855;1247;55602;-61
2023/09/05 16:25:26;;;;;;;;;51.67;38.33;;;;;26.58;44.57;101630.39;110862;1243;55861;-61
2023/09/05 16:27:53;;;;;;;;;47.67;39.00;;;;;26.58;44.49;101631.41;110844;1248;51751;-55
2023/09/05 16:30:20;;;;;;;;;44.50;35.25;;;;;26.60;44.40;101637.97;110903;1248;45200;-57
2023/09/05 16:32:48;;;;;;;;;48.00;36.67;;;;;26.63;44.44;101639.27;110894;1247;55214;-59
2023/09/05 16:35:18;;;;;;;;;46.50;36.50;;;;;26.63;44.47;101644.30;110878;1244;55472;-57
2023/09/05 16:37:45;;;;;;;;;44.00;34.00;;;;;26.63;44.53;101647.02;110899;1249;55948;-57
2023/09/05 16:40:12;;;;;;;;;51.75;38.00;;;;;26.64;44.60;101651.62;110882;1245;51841;-56
2023/09/05 16:42:39;;;;;;;;;47.00;36.00;;;;;26.63;44.65;101650.23;110892;1244;47162;-56
2023/09/05 16:45:07;;;;;;;;;44.25;35.50;;;;;26.63;44.70;101652.24;110872;1247;56279;-56
2023/09/05 16:47:34;;;;;;;;;45.50;35.00;;;;;26.64;44.72;101654.83;110860;1247;54918;-58
2023/09/05 16:50:01;;;;;;;;;44.33;34.33;;;;;26.65;44.71;101657.78;110819;1247;56573;-58
2023/09/05 16:52:28;;;;;;;;;39.50;33.75;;;;;26.64;44.66;101660.58;110859;1243;49781;-58
2023/09/05 16:54:55;;;;;;;;;44.33;35.00;;;;;26.63;44.70;101662.36;110910;1247;45693;-58
2023/09/05 16:57:22;;;;;;;;;44.50;32.75;;;;;26.62;44.73;101665.90;110893;1247;55891;-57
2023/09/05 16:59:49;;;;;;;;;41.25;33.75;;;;;26.61;44.74;101673.48;110900;1244;54342;-56
2023/09/05 17:02:16;;;;;;;;;38.25;31.75;;;;;26.60;44.75;101678.50;110865;1248;56094;-56
2023/09/05 17:04:42;;;;;;;;;46.33;35.33;;;;;26.59;44.75;101684.36;110880;1247;51158;-57
2023/09/05 17:07:09;;;;;;;;;39.67;32.33;;;;;26.58;44.74;101689.61;110880;1247;45492;-56
2023/09/05 17:09:36;;;;;;;;;40.50;33.50;;;;;26.57;44.72;101691.36;110885;1247;55663;-56
2023/09/05 17:12:04;;;;;;;;;38.25;32.00;;;;;26.57;44.72;101693.91;110905;1243;55335;-58
2023/09/05 17:14:32;;;;;;;;;38.50;32.50;;;;;26.55;44.70;101694.11;110893;1247;55094;-58
2023/09/05 17:16:59;;;;;;;;;39.75;31.50;;;;;26.55;44.69;101693.61;110852;1247;50655;-57
2023/09/05 17:19:26;;;;;;;;;40.00;32.00;;;;;26.54;44.67;101693.86;110884;1245;46882;-57
2023/09/05 17:21:53;;;;;;;;;38.00;32.33;;;;;26.53;44.70;101696.52;110883;1245;54688;-57
2023/09/05 17:24:20;;;;;;;;;38.33;31.33;;;;;26.53;44.68;101701.30;110872;1244;53608;-58
2023/09/05 17:26:47;;;;;;;;;35.00;31.00;;;;;26.53;44.70;101709.05;110846;1247;54946;-56
2023/09/05 17:29:16;;;;;;;;;37.67;29.00;;;;;26.51;44.71;101705.96;110854;1247;52194;-56
2023/09/05 17:31:43;;;;;;;;;37.75;31.00;;;;;26.52;44.72;101709.55;110853;1247;45136;-56
2023/09/05 17:34:12;;;;;;;;;33.75;29.25;;;;;26.51;44.72;101707.47;110894;1247;55223;-57
2023/09/05 17:36:39;;;;;;;;;33.67;29.33;;;;;26.51;44.72;101707.46;110886;1247;54660;-56
2023/09/05 17:39:07;;;;;;;;;38.25;32.50;;;;;26.51;44.73;101706.30;110856;1248;55267;-56
2023/09/05 17:41:36;;;;;;;;;37.00;29.33;;;;;26.51;44.71;101707.96;110912;1247;50438;-55
2023/09/05 17:44:03;;;;;;;;;37.00;30.75;;;;;26.52;44.70;101712.44;110885;1247;47280;-56
2023/09/05 17:46:30;;;;;;;;;42.00;32.00;;;;;26.51;44.68;101712.30;110888;1248;56602;-55
2023/09/05 17:48:57;;;;;;;;;33.33;29.00;;;;;26.51;44.69;101716.88;110829;1247;55199;-56
2023/09/05 17:51:23;;;;;;;;;35.00;31.75;;;;;26.50;44.70;101718.84;110857;1244;56568;-55
2023/09/05 17:53:50;;;;;;;;;34.00;29.50;;;;;26.50;44.72;101721.71;110877;1245;50530;-55
2023/09/05 17:56:17;;;;;;;;;31.00;27.75;;;;;26.49;44.74;101727.64;110850;1244;46575;-55
2023/09/05 17:58:44;;;;;;;;;37.00;29.00;;;;;26.48;44.75;101727.58;110854;1247;56524;-56
2023/09/05 18:01:11;;;;;;;;;31.50;27.50;;;;;26.47;44.75;101724.36;110866;1247;54974;-55
2023/09/05 18:03:38;;;;;;;;;34.00;29.25;;;;;26.47;44.77;101728.08;110869;1247;56217;-55
2023/09/05 18:06:05;;;;;;;;;33.00;29.33;;;;;26.46;44.78;101731.61;110865;1248;51704;-56
2023/09/05 18:08:32;;;;;;;;;38.50;30.00;;;;;26.46;44.81;101730.33;110846;1246;46063;-58
2023/09/05 18:11:05;;;;;;;;;31.25;28.75;;;;;26.47;44.70;101731.88;110819;1244;55681;-56
2023/09/05 18:13:33;;;;;;;;;33.67;29.33;;;;;26.52;44.58;101734.98;110958;1244;54013;-54
2023/09/05 18:16:05;;;;;;;;;30.25;28.25;;;;;26.56;44.14;101737.76;110874;1247;55966;-55
2023/09/05 18:18:33;;;;;;;;;34.25;29.25;;;;;26.57;44.08;101742.61;110874;1244;52595;-55
2023/09/05 18:21:04;;;;;;;;;34.25;29.75;;;;;26.58;44.44;101744.17;110841;1247;46607;-56
2023/09/05 18:23:33;;;;;;;;;27.67;27.00;;;;;26.61;44.62;101747.52;110789;1246;55764;-54
2023/09/05 18:26:08;;;;;;;;;31.25;29.25;;;;;26.63;44.52;101747.80;110822;1248;53802;-55
2023/09/05 18:28:36;;;;;;;;;32.00;28.25;;;;;26.66;44.40;101749.65;110906;1243;57294;-54
2023/09/05 18:31:11;;;;;;;;;33.50;30.00;;;;;26.68;44.39;101750.98;110810;1243;51030;-52
2023/09/05 18:33:40;;;;;;;;;30.33;28.00;;;;;26.71;44.48;101753.83;110817;1247;46957;-51
2023/09/05 18:36:09;;;;;;;;;30.50;27.75;;;;;26.73;44.65;101756.83;110844;1250;55326;-51
2023/09/05 18:38:40;;;;;;;;;32.50;29.25;;;;;26.73;44.42;101760.80;110899;1244;54731;-53
2023/09/05 18:41:14;;;;;;;;;29.00;24.33;;;;;26.73;44.36;101762.14;110882;1243;54497;-52
2023/09/05 18:43:54;;;;;;;;;23.33;23.00;;;;;26.72;44.35;101763.27;110876;1244;51621;-51
2023/09/05 18:46:21;;;;;;;;;26.00;24.00;;;;;26.73;44.31;101762.52;110874;1244;47249;-53
2023/09/05 18:48:48;;;;;;;;;26.00;23.00;;;;;26.74;44.09;101763.02;110848;1243;56242;-51
2023/09/05 18:51:16;;;;;;;;;22.50;20.25;;;;;26.75;43.52;101763.73;110847;1247;54782;-51
2023/09/05 18:53:45;;;;;;;;;26.75;23.00;;;;;26.74;43.18;101763.94;110820;1247;55849;-51
2023/09/05 18:56:12;;;;;;;;;23.50;20.25;;;;;26.74;43.16;101762.65;110885;1243;49912;-50
2023/09/05 18:58:39;;;;;;;;;27.50;25.00;;;;;26.75;43.11;101767.33;110715;1244;46264;-50
2023/09/05 19:01:06;;;;;;;;;26.67;25.00;;;;;26.77;44.10;101771.16;110708;1245;55753;-51
2023/09/05 19:03:33;;;;;;;;;26.50;23.50;;;;;26.82;44.41;101777.40;110657;1244;56056;-51
2023/09/05 19:06:00;;;;;;;;;34.67;31.33;;;;;26.86;43.54;101775.55;110652;1248;56570;-50
2023/09/05 19:08:27;;;;;;;;;38.00;32.25;;;;;26.90;43.45;101773.98;110685;1248;50239;-51
2023/09/05 19:10:55;;;;;;;;;30.67;27.67;;;;;26.93;43.28;101772.20;110892;1245;46709;-52
2023/09/05 19:13:23;;;;;;;;;30.50;26.50;;;;;26.96;42.60;101770.13;110783;1244;54770;-55
2023/09/05 19:15:52;;;;;;;;;27.25;25.25;;;;;26.98;42.17;101770.39;110792;1247;55116;-56
2023/09/05 19:18:21;;;;;;;;;23.00;19.50;;;;;27.00;42.08;101773.95;111080;1244;56706;-55
2023/09/05 19:20:54;;;;;;;;;20.00;18.25;;;;;27.04;42.28;101777.68;110750;1245;51555;-54
2023/09/05 19:23:22;;;;;;;;;22.00;20.00;;;;;27.07;41.97;101780.40;110700;1243;47004;-55
2023/09/05 19:25:49;;;;;;;;;23.25;20.50;;;;;27.09;41.89;101781.23;112941;1246;56690;-56
2023/09/05 19:28:16;;;;;;;;;22.00;19.00;;;;;27.25;41.65;101780.64;112946;1246;54384;-54
2023/09/05 19:30:42;;;;;;;;;20.75;17.50;;;;;27.51;40.98;101778.92;112944;1243;56571;-55
2023/09/05 19:33:09;;;;;;;;;20.50;17.75;;;;;27.76;40.35;101774.29;111660;1248;52030;-54
2023/09/05 19:35:36;;;;;;;;;18.75;18.50;;;;;27.91;39.65;101782.08;110674;1247;46527;-55
2023/09/05 19:38:03;;;;;;;;;17.67;16.33;;;;;27.83;39.60;101778.42;110693;1243;56696;-54
2023/09/05 19:40:30;;;;;;;;;20.00;18.00;;;;;27.67;39.82;101775.52;110801;1248;55217;-52
2023/09/05 19:42:57;;;;;;;;;18.75;17.50;;;;;27.53;39.98;101773.74;110675;1248;56586;-51
2023/09/05 19:45:24;;;;;;;;;19.75;19.00;;;;;27.44;40.86;101773.16;110697;1244;50603;-51
2023/09/05 19:47:53;;;;;;;;;18.00;17.25;;;;;27.38;40.84;101781.44;110736;1244;47546;-49
2023/09/05 19:50:21;;;;;;;;;21.00;19.00;;;;;27.33;40.73;101784.64;110794;1247;56989;-55
2023/09/05 19:52:48;;;;;;;;;19.00;18.67;;;;;27.29;40.72;101786.59;110709;1242;55597;-55
2023/09/05 19:55:15;;;;;;;;;26.75;24.75;;;;;27.27;40.67;101788.25;110677;1247;56464;-55
2023/09/05 19:57:42;;;;;;;;;25.00;22.67;;;;;27.25;40.58;101791.30;111442;1247;50347;-55
